sensor_id;sensor_type;location;lat;lon;timestamp;P1;durP1;ratioP1;P2;durP2;ratioP2
32874;SDS011;40468;42.128;24.750;2023-04-24T00:00:03;9.30;;;4.32;;
32874;SDS011;40468;42.128;24.750;2023-04-24T00:01:36;9.27;;;4.53;;
32874;SDS011;40468;42.128;24.750;2023-04-24T00:03:10;8.20;;;4.32;;
32874;SDS011;40468;42.128;24.750;2023-04-24T00:06:15;9.98;;;4.38;;
32874;SDS011;40468;42.128;24.750;2023-04-24T00:07:48;11.80;;;4.82;;
32874;SDS011;40468;42.128;24.750;2023-04-24T00:09:22;14.45;;;4.68;;
32874;SDS011;40468;42.128;24.750;2023-04-24T00:10:54;11.57;;;4.80;;
32874;SDS011;40468;42.128;24.750;2023-04-24T00:12:26;11.85;;;5.20;;
32874;SDS011;40468;42.128;24.750;2023-04-24T00:13:58;10.13;;;4.97;;
32874;SDS011;40468;42.128;24.750;2023-04-24T00:15:30;13.48;;;5.10;;
32874;SDS011;40468;42.128;24.750;2023-04-24T00:17:01;9.23;;;5.07;;
32874;SDS011;40468;42.128;24.750;2023-04-24T00:18:35;9.27;;;4.90;;
32874;SDS011;40468;42.128;24.750;2023-04-24T00:20:07;14.30;;;5.95;;
32874;SDS011;40468;42.128;24.750;2023-04-24T00:21:40;12.55;;;5.10;;
32874;SDS011;40468;42.128;24.750;2023-04-24T00:23:13;14.68;;;5.72;;
32874;SDS011;40468;42.128;24.750;2023-04-24T00:24:44;14.52;;;5.63;;
32874;SDS011;40468;42.128;24.750;2023-04-24T00:26:16;9.65;;;5.05;;
32874;SDS011;40468;42.128;24.750;2023-04-24T00:27:48;10.75;;;4.68;;
32874;SDS011;40468;42.128;24.750;2023-04-24T00:29:20;13.52;;;4.65;;
32874;SDS011;40468;42.128;24.750;2023-04-24T00:30:52;9.40;;;5.15;;
32874;SDS011;40468;42.128;24.750;2023-04-24T00:32:24;15.88;;;6.10;;
32874;SDS011;40468;42.128;24.750;2023-04-24T00:33:57;11.05;;;5.28;;
32874;SDS011;40468;42.128;24.750;2023-04-24T00:35:29;9.27;;;4.97;;
32874;SDS011;40468;42.128;24.750;2023-04-24T00:37:01;9.68;;;4.93;;
32874;SDS011;40468;42.128;24.750;2023-04-24T00:38:33;11.85;;;5.00;;
32874;SDS011;40468;42.128;24.750;2023-04-24T00:40:05;13.40;;;5.13;;
32874;SDS011;40468;42.128;24.750;2023-04-24T00:41:38;13.60;;;4.90;;
32874;SDS011;40468;42.128;24.750;2023-04-24T00:43:10;9.68;;;4.57;;
32874;SDS011;40468;42.128;24.750;2023-04-24T00:44:42;13.45;;;4.80;;
32874;SDS011;40468;42.128;24.750;2023-04-24T00:46:13;11.35;;;4.68;;
32874;SDS011;40468;42.128;24.750;2023-04-24T00:47:45;12.50;;;4.30;;
32874;SDS011;40468;42.128;24.750;2023-04-24T00:49:21;12.88;;;5.75;;
32874;SDS011;40468;42.128;24.750;2023-04-24T00:50:52;18.05;;;5.68;;
32874;SDS011;40468;42.128;24.750;2023-04-24T00:52:24;12.18;;;5.00;;
32874;SDS011;40468;42.128;24.750;2023-04-24T00:53:55;17.08;;;5.32;;
32874;SDS011;40468;42.128;24.750;2023-04-24T00:55:27;10.15;;;5.85;;
32874;SDS011;40468;42.128;24.750;2023-04-24T00:56:58;9.98;;;4.55;;
32874;SDS011;40468;42.128;24.750;2023-04-24T00:58:31;11.40;;;5.00;;
32874;SDS011;40468;42.128;24.750;2023-04-24T01:00:03;9.18;;;5.00;;
32874;SDS011;40468;42.128;24.750;2023-04-24T01:01:42;14.98;;;5.25;;
32874;SDS011;40468;42.128;24.750;2023-04-24T01:03:15;15.32;;;4.78;;
32874;SDS011;40468;42.128;24.750;2023-04-24T01:04:50;15.55;;;4.35;;
32874;SDS011;40468;42.128;24.750;2023-04-24T01:06:21;14.38;;;5.30;;
32874;SDS011;40468;42.128;24.750;2023-04-24T01:07:54;12.07;;;4.75;;
32874;SDS011;40468;42.128;24.750;2023-04-24T01:09:27;6.78;;;4.35;;
32874;SDS011;40468;42.128;24.750;2023-04-24T01:10:59;7.53;;;4.63;;
32874;SDS011;40468;42.128;24.750;2023-04-24T01:12:34;8.25;;;4.50;;
32874;SDS011;40468;42.128;24.750;2023-04-24T01:14:06;10.55;;;4.57;;
32874;SDS011;40468;42.128;24.750;2023-04-24T01:15:38;7.30;;;4.32;;
32874;SDS011;40468;42.128;24.750;2023-04-24T01:17:11;10.38;;;4.53;;
32874;SDS011;40468;42.128;24.750;2023-04-24T01:18:43;13.05;;;5.00;;
32874;SDS011;40468;42.128;24.750;2023-04-24T01:20:17;13.82;;;5.28;;
32874;SDS011;40468;42.128;24.750;2023-04-24T01:21:50;10.10;;;4.90;;
32874;SDS011;40468;42.128;24.750;2023-04-24T01:23:26;17.02;;;5.47;;
32874;SDS011;40468;42.128;24.750;2023-04-24T01:24:58;11.18;;;4.85;;
32874;SDS011;40468;42.128;24.750;2023-04-24T01:26:29;10.18;;;4.97;;
32874;SDS011;40468;42.128;24.750;2023-04-24T01:28:01;12.40;;;4.93;;
32874;SDS011;40468;42.128;24.750;2023-04-24T01:29:33;13.00;;;4.68;;
32874;SDS011;40468;42.128;24.750;2023-04-24T01:31:06;13.48;;;6.10;;
32874;SDS011;40468;42.128;24.750;2023-04-24T01:32:38;15.23;;;7.13;;
32874;SDS011;40468;42.128;24.750;2023-04-24T01:35:42;17.63;;;6.32;;
32874;SDS011;40468;42.128;24.750;2023-04-24T01:37:14;16.80;;;6.95;;
32874;SDS011;40468;42.128;24.750;2023-04-24T01:38:47;15.80;;;7.32;;
32874;SDS011;40468;42.128;24.750;2023-04-24T01:40:19;13.57;;;6.93;;
32874;SDS011;40468;42.128;24.750;2023-04-24T01:41:50;13.38;;;6.32;;
32874;SDS011;40468;42.128;24.750;2023-04-24T01:43:22;14.18;;;6.90;;
32874;SDS011;40468;42.128;24.750;2023-04-24T01:44:55;11.10;;;6.72;;
32874;SDS011;40468;42.128;24.750;2023-04-24T01:46:28;16.23;;;6.53;;
32874;SDS011;40468;42.128;24.750;2023-04-24T01:48:01;13.27;;;6.60;;
32874;SDS011;40468;42.128;24.750;2023-04-24T01:49:33;13.95;;;7.35;;
32874;SDS011;40468;42.128;24.750;2023-04-24T01:51:05;12.55;;;7.15;;
32874;SDS011;40468;42.128;24.750;2023-04-24T01:52:37;15.52;;;7.03;;
32874;SDS011;40468;42.128;24.750;2023-04-24T01:54:10;13.02;;;7.80;;
32874;SDS011;40468;42.128;24.750;2023-04-24T01:55:43;13.32;;;6.65;;
32874;SDS011;40468;42.128;24.750;2023-04-24T01:57:15;15.95;;;8.27;;
32874;SDS011;40468;42.128;24.750;2023-04-24T01:58:47;16.50;;;7.63;;
32874;SDS011;40468;42.128;24.750;2023-04-24T02:00:20;12.25;;;7.30;;
32874;SDS011;40468;42.128;24.750;2023-04-24T02:01:52;14.93;;;7.70;;
32874;SDS011;40468;42.128;24.750;2023-04-24T02:03:23;14.07;;;7.55;;
32874;SDS011;40468;42.128;24.750;2023-04-24T02:04:55;12.60;;;7.57;;
32874;SDS011;40468;42.128;24.750;2023-04-24T02:06:27;12.95;;;7.15;;
32874;SDS011;40468;42.128;24.750;2023-04-24T02:07:58;14.30;;;6.85;;
32874;SDS011;40468;42.128;24.750;2023-04-24T02:09:31;11.60;;;7.57;;
32874;SDS011;40468;42.128;24.750;2023-04-24T02:11:03;17.13;;;8.43;;
32874;SDS011;40468;42.128;24.750;2023-04-24T02:12:36;14.10;;;6.72;;
32874;SDS011;40468;42.128;24.750;2023-04-24T02:14:08;17.60;;;7.57;;
32874;SDS011;40468;42.128;24.750;2023-04-24T02:15:40;14.18;;;6.90;;
32874;SDS011;40468;42.128;24.750;2023-04-24T02:17:12;13.90;;;7.32;;
32874;SDS011;40468;42.128;24.750;2023-04-24T02:20:17;14.07;;;6.82;;
32874;SDS011;40468;42.128;24.750;2023-04-24T02:21:49;12.15;;;6.70;;
32874;SDS011;40468;42.128;24.750;2023-04-24T02:23:21;16.52;;;7.60;;
32874;SDS011;40468;42.128;24.750;2023-04-24T02:24:54;13.13;;;6.72;;
32874;SDS011;40468;42.128;24.750;2023-04-24T02:26:26;16.98;;;7.00;;
32874;SDS011;40468;42.128;24.750;2023-04-24T02:27:58;14.18;;;7.28;;
32874;SDS011;40468;42.128;24.750;2023-04-24T02:29:30;16.23;;;7.63;;
32874;SDS011;40468;42.128;24.750;2023-04-24T02:31:02;18.05;;;7.95;;
32874;SDS011;40468;42.128;24.750;2023-04-24T02:32:35;13.80;;;6.88;;
32874;SDS011;40468;42.128;24.750;2023-04-24T02:34:07;14.70;;;6.68;;
32874;SDS011;40468;42.128;24.750;2023-04-24T02:35:39;13.80;;;7.38;;
32874;SDS011;40468;42.128;24.750;2023-04-24T02:37:11;10.90;;;6.72;;
32874;SDS011;40468;42.128;24.750;2023-04-24T02:38:43;11.75;;;7.28;;
32874;SDS011;40468;42.128;24.750;2023-04-24T02:40:17;17.27;;;7.03;;
32874;SDS011;40468;42.128;24.750;2023-04-24T02:41:49;16.60;;;7.00;;
32874;SDS011;40468;42.128;24.750;2023-04-24T02:43:20;18.67;;;7.55;;
32874;SDS011;40468;42.128;24.750;2023-04-24T02:44:52;12.15;;;7.55;;
32874;SDS011;40468;42.128;24.750;2023-04-24T02:46:24;12.65;;;6.78;;
32874;SDS011;40468;42.128;24.750;2023-04-24T02:47:57;15.80;;;7.05;;
32874;SDS011;40468;42.128;24.750;2023-04-24T02:49:29;15.05;;;6.93;;
32874;SDS011;40468;42.128;24.750;2023-04-24T02:51:01;17.17;;;6.90;;
32874;SDS011;40468;42.128;24.750;2023-04-24T02:52:33;12.20;;;7.18;;
32874;SDS011;40468;42.128;24.750;2023-04-24T02:54:05;14.20;;;7.78;;
32874;SDS011;40468;42.128;24.750;2023-04-24T02:55:38;13.80;;;6.88;;
32874;SDS011;40468;42.128;24.750;2023-04-24T02:57:09;21.37;;;7.43;;
32874;SDS011;40468;42.128;24.750;2023-04-24T02:58:42;12.00;;;7.65;;
32874;SDS011;40468;42.128;24.750;2023-04-24T03:00:14;17.23;;;7.72;;
32874;SDS011;40468;42.128;24.750;2023-04-24T03:02:19;14.63;;;7.40;;
32874;SDS011;40468;42.128;24.750;2023-04-24T03:03:51;13.90;;;7.65;;
32874;SDS011;40468;42.128;24.750;2023-04-24T03:05:23;19.27;;;7.65;;
32874;SDS011;40468;42.128;24.750;2023-04-24T03:08:28;13.18;;;6.90;;
32874;SDS011;40468;42.128;24.750;2023-04-24T03:10:00;14.57;;;7.40;;
32874;SDS011;40468;42.128;24.750;2023-04-24T03:11:32;16.30;;;7.28;;
32874;SDS011;40468;42.128;24.750;2023-04-24T03:14:36;15.60;;;7.05;;
32874;SDS011;40468;42.128;24.750;2023-04-24T03:16:07;16.13;;;7.95;;
32874;SDS011;40468;42.128;24.750;2023-04-24T03:17:39;15.73;;;7.70;;
32874;SDS011;40468;42.128;24.750;2023-04-24T03:19:11;15.70;;;7.25;;
32874;SDS011;40468;42.128;24.750;2023-04-24T03:20:45;15.98;;;7.47;;
32874;SDS011;40468;42.128;24.750;2023-04-24T03:22:16;13.77;;;8.00;;
32874;SDS011;40468;42.128;24.750;2023-04-24T03:23:48;20.20;;;8.07;;
32874;SDS011;40468;42.128;24.750;2023-04-24T03:25:21;16.90;;;9.45;;
32874;SDS011;40468;42.128;24.750;2023-04-24T03:26:54;16.40;;;9.50;;
32874;SDS011;40468;42.128;24.750;2023-04-24T03:28:27;20.70;;;9.07;;
32874;SDS011;40468;42.128;24.750;2023-04-24T03:29:59;16.05;;;8.75;;
32874;SDS011;40468;42.128;24.750;2023-04-24T03:31:31;19.33;;;10.02;;
32874;SDS011;40468;42.128;24.750;2023-04-24T03:33:03;16.27;;;9.23;;
32874;SDS011;40468;42.128;24.750;2023-04-24T03:34:35;16.15;;;8.93;;
32874;SDS011;40468;42.128;24.750;2023-04-24T03:36:06;18.13;;;9.38;;
32874;SDS011;40468;42.128;24.750;2023-04-24T03:37:38;21.23;;;8.95;;
32874;SDS011;40468;42.128;24.750;2023-04-24T03:39:09;19.25;;;9.68;;
32874;SDS011;40468;42.128;24.750;2023-04-24T03:40:42;16.95;;;8.75;;
32874;SDS011;40468;42.128;24.750;2023-04-24T03:42:15;18.95;;;10.40;;
32874;SDS011;40468;42.128;24.750;2023-04-24T03:45:18;20.65;;;9.32;;
32874;SDS011;40468;42.128;24.750;2023-04-24T03:46:50;24.38;;;9.07;;
32874;SDS011;40468;42.128;24.750;2023-04-24T03:48:22;19.23;;;8.90;;
32874;SDS011;40468;42.128;24.750;2023-04-24T03:49:53;18.00;;;8.77;;
32874;SDS011;40468;42.128;24.750;2023-04-24T03:51:26;16.15;;;8.95;;
32874;SDS011;40468;42.128;24.750;2023-04-24T03:53:00;25.95;;;9.75;;
32874;SDS011;40468;42.128;24.750;2023-04-24T03:54:31;21.80;;;8.60;;
32874;SDS011;40468;42.128;24.750;2023-04-24T03:56:03;20.60;;;8.85;;
32874;SDS011;40468;42.128;24.750;2023-04-24T03:57:37;18.75;;;8.95;;
32874;SDS011;40468;42.128;24.750;2023-04-24T03:59:09;18.23;;;8.73;;
32874;SDS011;40468;42.128;24.750;2023-04-24T04:00:41;16.80;;;9.27;;
32874;SDS011;40468;42.128;24.750;2023-04-24T04:03:46;27.42;;;9.52;;
32874;SDS011;40468;42.128;24.750;2023-04-24T04:05:18;17.30;;;8.50;;
32874;SDS011;40468;42.128;24.750;2023-04-24T04:06:50;18.67;;;9.85;;
32874;SDS011;40468;42.128;24.750;2023-04-24T04:08:22;21.58;;;9.07;;
32874;SDS011;40468;42.128;24.750;2023-04-24T04:09:54;16.02;;;8.93;;
32874;SDS011;40468;42.128;24.750;2023-04-24T04:11:26;17.70;;;8.15;;
32874;SDS011;40468;42.128;24.750;2023-04-24T04:12:59;24.23;;;9.18;;
32874;SDS011;40468;42.128;24.750;2023-04-24T04:14:31;25.58;;;9.73;;
32874;SDS011;40468;42.128;24.750;2023-04-24T04:16:03;20.98;;;8.65;;
32874;SDS011;40468;42.128;24.750;2023-04-24T04:17:36;28.00;;;8.45;;
32874;SDS011;40468;42.128;24.750;2023-04-24T04:19:09;25.83;;;9.20;;
32874;SDS011;40468;42.128;24.750;2023-04-24T04:20:41;25.48;;;9.52;;
32874;SDS011;40468;42.128;24.750;2023-04-24T04:22:13;20.10;;;9.13;;
32874;SDS011;40468;42.128;24.750;2023-04-24T04:23:45;21.92;;;8.80;;
32874;SDS011;40468;42.128;24.750;2023-04-24T04:25:17;21.55;;;9.00;;
32874;SDS011;40468;42.128;24.750;2023-04-24T04:26:49;21.40;;;10.05;;
32874;SDS011;40468;42.128;24.750;2023-04-24T04:28:23;21.13;;;8.65;;
32874;SDS011;40468;42.128;24.750;2023-04-24T04:29:56;18.73;;;8.45;;
32874;SDS011;40468;42.128;24.750;2023-04-24T04:31:29;17.33;;;8.23;;
32874;SDS011;40468;42.128;24.750;2023-04-24T04:33:01;23.65;;;8.85;;
32874;SDS011;40468;42.128;24.750;2023-04-24T04:34:33;53.88;;;21.60;;
32874;SDS011;40468;42.128;24.750;2023-04-24T04:36:07;43.55;;;21.75;;
32874;SDS011;40468;42.128;24.750;2023-04-24T04:37:40;119.63;;;55.42;;
32874;SDS011;40468;42.128;24.750;2023-04-24T04:39:12;124.70;;;60.67;;
32874;SDS011;40468;42.128;24.750;2023-04-24T04:40:46;55.25;;;23.33;;
32874;SDS011;40468;42.128;24.750;2023-04-24T04:42:18;35.40;;;18.60;;
32874;SDS011;40468;42.128;24.750;2023-04-24T04:43:52;26.58;;;13.13;;
32874;SDS011;40468;42.128;24.750;2023-04-24T04:45:23;69.68;;;36.97;;
32874;SDS011;40468;42.128;24.750;2023-04-24T04:46:57;115.80;;;57.28;;
32874;SDS011;40468;42.128;24.750;2023-04-24T04:48:29;54.70;;;27.90;;
32874;SDS011;40468;42.128;24.750;2023-04-24T04:50:01;54.40;;;26.65;;
32874;SDS011;40468;42.128;24.750;2023-04-24T04:51:35;44.17;;;17.38;;
32874;SDS011;40468;42.128;24.750;2023-04-24T04:53:14;19.97;;;9.47;;
32874;SDS011;40468;42.128;24.750;2023-04-24T04:54:46;17.75;;;9.15;;
32874;SDS011;40468;42.128;24.750;2023-04-24T04:56:18;18.67;;;9.65;;
32874;SDS011;40468;42.128;24.750;2023-04-24T04:57:50;21.65;;;8.80;;
32874;SDS011;40468;42.128;24.750;2023-04-24T04:59:24;16.65;;;8.95;;
32874;SDS011;40468;42.128;24.750;2023-04-24T05:00:56;16.92;;;7.82;;
32874;SDS011;40468;42.128;24.750;2023-04-24T05:02:29;17.03;;;8.73;;
32874;SDS011;40468;42.128;24.750;2023-04-24T05:04:01;22.83;;;8.43;;
32874;SDS011;40468;42.128;24.750;2023-04-24T05:05:33;17.50;;;8.00;;
32874;SDS011;40468;42.128;24.750;2023-04-24T05:07:05;17.25;;;8.30;;
32874;SDS011;40468;42.128;24.750;2023-04-24T05:08:37;21.23;;;8.48;;
32874;SDS011;40468;42.128;24.750;2023-04-24T05:10:09;15.90;;;7.57;;
32874;SDS011;40468;42.128;24.750;2023-04-24T05:11:42;22.98;;;9.10;;
32874;SDS011;40468;42.128;24.750;2023-04-24T05:13:14;16.85;;;7.80;;
32874;SDS011;40468;42.128;24.750;2023-04-24T05:14:47;13.80;;;7.57;;
32874;SDS011;40468;42.128;24.750;2023-04-24T05:16:20;16.17;;;8.80;;
32874;SDS011;40468;42.128;24.750;2023-04-24T05:17:52;17.33;;;7.90;;
32874;SDS011;40468;42.128;24.750;2023-04-24T05:19:24;11.93;;;7.43;;
32874;SDS011;40468;42.128;24.750;2023-04-24T05:20:56;13.70;;;8.60;;
32874;SDS011;40468;42.128;24.750;2023-04-24T05:22:27;16.25;;;8.63;;
32874;SDS011;40468;42.128;24.750;2023-04-24T05:23:59;20.73;;;7.93;;
32874;SDS011;40468;42.128;24.750;2023-04-24T05:25:31;20.52;;;8.68;;
32874;SDS011;40468;42.128;24.750;2023-04-24T05:27:05;15.88;;;7.55;;
32874;SDS011;40468;42.128;24.750;2023-04-24T05:28:37;22.08;;;8.07;;
32874;SDS011;40468;42.128;24.750;2023-04-24T05:30:11;17.67;;;6.78;;
32874;SDS011;40468;42.128;24.750;2023-04-24T05:31:43;19.63;;;7.38;;
32874;SDS011;40468;42.128;24.750;2023-04-24T05:33:15;22.05;;;7.05;;
32874;SDS011;40468;42.128;24.750;2023-04-24T05:34:47;21.92;;;7.55;;
32874;SDS011;40468;42.128;24.750;2023-04-24T05:36:19;22.98;;;7.65;;
32874;SDS011;40468;42.128;24.750;2023-04-24T05:37:52;14.93;;;7.00;;
32874;SDS011;40468;42.128;24.750;2023-04-24T05:39:24;16.05;;;6.43;;
32874;SDS011;40468;42.128;24.750;2023-04-24T05:40:56;18.77;;;6.35;;
32874;SDS011;40468;42.128;24.750;2023-04-24T05:42:27;24.10;;;8.15;;
32874;SDS011;40468;42.128;24.750;2023-04-24T05:43:59;16.20;;;6.43;;
32874;SDS011;40468;42.128;24.750;2023-04-24T05:45:33;21.63;;;6.57;;
32874;SDS011;40468;42.128;24.750;2023-04-24T05:47:06;17.10;;;6.00;;
32874;SDS011;40468;42.128;24.750;2023-04-24T05:48:38;10.70;;;5.40;;
32874;SDS011;40468;42.128;24.750;2023-04-24T05:50:10;12.88;;;5.95;;
32874;SDS011;40468;42.128;24.750;2023-04-24T05:51:42;15.75;;;6.50;;
32874;SDS011;40468;42.128;24.750;2023-04-24T05:53:14;12.37;;;5.70;;
32874;SDS011;40468;42.128;24.750;2023-04-24T05:54:47;10.23;;;6.20;;
32874;SDS011;40468;42.128;24.750;2023-04-24T05:56:19;14.48;;;6.20;;
32874;SDS011;40468;42.128;24.750;2023-04-24T05:57:51;14.10;;;6.03;;
32874;SDS011;40468;42.128;24.750;2023-04-24T05:59:23;13.93;;;6.65;;
32874;SDS011;40468;42.128;24.750;2023-04-24T06:00:57;19.23;;;6.35;;
32874;SDS011;40468;42.128;24.750;2023-04-24T06:02:31;15.98;;;6.72;;
32874;SDS011;40468;42.128;24.750;2023-04-24T06:04:04;14.20;;;5.90;;
32874;SDS011;40468;42.128;24.750;2023-04-24T06:05:36;16.55;;;6.32;;
32874;SDS011;40468;42.128;24.750;2023-04-24T06:07:09;19.20;;;5.82;;
32874;SDS011;40468;42.128;24.750;2023-04-24T06:08:41;15.50;;;5.93;;
32874;SDS011;40468;42.128;24.750;2023-04-24T06:10:14;19.23;;;6.67;;
32874;SDS011;40468;42.128;24.750;2023-04-24T06:11:46;11.30;;;6.03;;
32874;SDS011;40468;42.128;24.750;2023-04-24T06:13:18;14.07;;;5.20;;
32874;SDS011;40468;42.128;24.750;2023-04-24T06:14:50;14.05;;;5.25;;
32874;SDS011;40468;42.128;24.750;2023-04-24T06:16:24;15.90;;;5.43;;
32874;SDS011;40468;42.128;24.750;2023-04-24T06:17:56;8.73;;;4.88;;
32874;SDS011;40468;42.128;24.750;2023-04-24T06:19:29;10.77;;;5.18;;
32874;SDS011;40468;42.128;24.750;2023-04-24T06:21:01;21.35;;;5.50;;
32874;SDS011;40468;42.128;24.750;2023-04-24T06:22:33;10.50;;;5.10;;
32874;SDS011;40468;42.128;24.750;2023-04-24T06:24:05;10.32;;;5.00;;
32874;SDS011;40468;42.128;24.750;2023-04-24T06:25:37;12.30;;;5.30;;
32874;SDS011;40468;42.128;24.750;2023-04-24T06:27:10;14.13;;;5.57;;
32874;SDS011;40468;42.128;24.750;2023-04-24T06:28:42;10.60;;;4.53;;
32874;SDS011;40468;42.128;24.750;2023-04-24T06:30:15;10.48;;;5.18;;
32874;SDS011;40468;42.128;24.750;2023-04-24T06:31:49;10.15;;;5.05;;
32874;SDS011;40468;42.128;24.750;2023-04-24T06:33:21;15.63;;;6.25;;
32874;SDS011;40468;42.128;24.750;2023-04-24T06:34:53;8.57;;;5.32;;
32874;SDS011;40468;42.128;24.750;2023-04-24T06:36:25;13.35;;;6.07;;
32874;SDS011;40468;42.128;24.750;2023-04-24T06:37:58;18.73;;;6.28;;
32874;SDS011;40468;42.128;24.750;2023-04-24T06:39:30;11.07;;;5.85;;
32874;SDS011;40468;42.128;24.750;2023-04-24T06:41:02;12.02;;;5.85;;
32874;SDS011;40468;42.128;24.750;2023-04-24T06:42:35;14.98;;;5.63;;
32874;SDS011;40468;42.128;24.750;2023-04-24T06:44:07;9.93;;;5.45;;
32874;SDS011;40468;42.128;24.750;2023-04-24T06:45:39;8.63;;;5.57;;
32874;SDS011;40468;42.128;24.750;2023-04-24T06:47:14;13.68;;;5.47;;
32874;SDS011;40468;42.128;24.750;2023-04-24T06:48:47;17.63;;;5.57;;
32874;SDS011;40468;42.128;24.750;2023-04-24T06:50:19;12.35;;;5.38;;
32874;SDS011;40468;42.128;24.750;2023-04-24T06:51:51;12.93;;;5.97;;
32874;SDS011;40468;42.128;24.750;2023-04-24T06:53:23;13.35;;;5.18;;
32874;SDS011;40468;42.128;24.750;2023-04-24T06:54:59;11.70;;;5.90;;
32874;SDS011;40468;42.128;24.750;2023-04-24T06:56:32;12.25;;;5.15;;
32874;SDS011;40468;42.128;24.750;2023-04-24T06:58:04;11.10;;;5.35;;
32874;SDS011;40468;42.128;24.750;2023-04-24T06:59:36;13.15;;;5.43;;
32874;SDS011;40468;42.128;24.750;2023-04-24T07:01:09;17.08;;;5.55;;
32874;SDS011;40468;42.128;24.750;2023-04-24T07:02:43;9.10;;;5.03;;
32874;SDS011;40468;42.128;24.750;2023-04-24T07:04:15;9.70;;;5.53;;
32874;SDS011;40468;42.128;24.750;2023-04-24T07:07:41;11.20;;;5.45;;
32874;SDS011;40468;42.128;24.750;2023-04-24T07:09:17;12.57;;;5.45;;
32874;SDS011;40468;42.128;24.750;2023-04-24T07:10:49;74.88;;;37.45;;
32874;SDS011;40468;42.128;24.750;2023-04-24T07:12:22;46.58;;;23.60;;
32874;SDS011;40468;42.128;24.750;2023-04-24T07:13:54;43.15;;;25.50;;
32874;SDS011;40468;42.128;24.750;2023-04-24T07:15:29;26.70;;;13.68;;
32874;SDS011;40468;42.128;24.750;2023-04-24T07:18:35;13.48;;;6.82;;
32874;SDS011;40468;42.128;24.750;2023-04-24T07:20:09;11.77;;;6.13;;
32874;SDS011;40468;42.128;24.750;2023-04-24T07:21:41;13.27;;;5.75;;
32874;SDS011;40468;42.128;24.750;2023-04-24T07:23:13;9.15;;;5.63;;
32874;SDS011;40468;42.128;24.750;2023-04-24T07:24:45;10.63;;;5.80;;
32874;SDS011;40468;42.128;24.750;2023-04-24T07:26:18;12.60;;;5.40;;
32874;SDS011;40468;42.128;24.750;2023-04-24T07:27:50;10.02;;;4.90;;
32874;SDS011;40468;42.128;24.750;2023-04-24T07:29:22;14.05;;;5.53;;
32874;SDS011;40468;42.128;24.750;2023-04-24T07:30:55;20.10;;;6.00;;
32874;SDS011;40468;42.128;24.750;2023-04-24T07:32:27;17.23;;;5.78;;
32874;SDS011;40468;42.128;24.750;2023-04-24T07:34:01;10.63;;;5.35;;
32874;SDS011;40468;42.128;24.750;2023-04-24T07:35:33;9.45;;;5.45;;
32874;SDS011;40468;42.128;24.750;2023-04-24T07:37:06;12.30;;;5.80;;
32874;SDS011;40468;42.128;24.750;2023-04-24T07:38:38;10.55;;;5.78;;
32874;SDS011;40468;42.128;24.750;2023-04-24T07:40:10;12.40;;;5.40;;
32874;SDS011;40468;42.128;24.750;2023-04-24T07:41:43;15.85;;;5.90;;
32874;SDS011;40468;42.128;24.750;2023-04-24T07:43:14;20.38;;;7.32;;
32874;SDS011;40468;42.128;24.750;2023-04-24T07:44:46;9.73;;;5.22;;
32874;SDS011;40468;42.128;24.750;2023-04-24T07:46:22;13.05;;;5.10;;
32874;SDS011;40468;42.128;24.750;2023-04-24T07:47:54;20.08;;;5.68;;
32874;SDS011;40468;42.128;24.750;2023-04-24T07:49:28;11.15;;;5.35;;
32874;SDS011;40468;42.128;24.750;2023-04-24T07:51:00;12.57;;;6.03;;
32874;SDS011;40468;42.128;24.750;2023-04-24T07:52:32;10.93;;;5.03;;
32874;SDS011;40468;42.128;24.750;2023-04-24T07:54:05;13.40;;;5.72;;
32874;SDS011;40468;42.128;24.750;2023-04-24T07:55:37;13.57;;;5.93;;
32874;SDS011;40468;42.128;24.750;2023-04-24T07:57:09;12.40;;;5.45;;
32874;SDS011;40468;42.128;24.750;2023-04-24T07:58:41;14.35;;;5.28;;
32874;SDS011;40468;42.128;24.750;2023-04-24T08:00:13;12.23;;;5.70;;
32874;SDS011;40468;42.128;24.750;2023-04-24T08:01:46;12.18;;;5.55;;
32874;SDS011;40468;42.128;24.750;2023-04-24T08:03:18;11.80;;;6.18;;
32874;SDS011;40468;42.128;24.750;2023-04-24T08:04:52;16.90;;;6.20;;
32874;SDS011;40468;42.128;24.750;2023-04-24T08:06:25;11.45;;;5.25;;
32874;SDS011;40468;42.128;24.750;2023-04-24T08:08:00;13.82;;;5.95;;
32874;SDS011;40468;42.128;24.750;2023-04-24T08:09:32;13.48;;;6.82;;
32874;SDS011;40468;42.128;24.750;2023-04-24T08:11:04;13.05;;;6.07;;
32874;SDS011;40468;42.128;24.750;2023-04-24T08:12:36;10.90;;;6.07;;
32874;SDS011;40468;42.128;24.750;2023-04-24T08:14:09;16.23;;;5.57;;
32874;SDS011;40468;42.128;24.750;2023-04-24T08:15:43;12.68;;;6.22;;
32874;SDS011;40468;42.128;24.750;2023-04-24T08:17:16;11.77;;;5.40;;
32874;SDS011;40468;42.128;24.750;2023-04-24T08:18:48;12.15;;;5.72;;
32874;SDS011;40468;42.128;24.750;2023-04-24T08:20:21;13.38;;;5.60;;
32874;SDS011;40468;42.128;24.750;2023-04-24T08:21:54;15.48;;;5.80;;
32874;SDS011;40468;42.128;24.750;2023-04-24T08:23:26;18.85;;;6.57;;
32874;SDS011;40468;42.128;24.750;2023-04-24T08:24:59;13.40;;;5.65;;
32874;SDS011;40468;42.128;24.750;2023-04-24T08:26:31;18.25;;;6.45;;
32874;SDS011;40468;42.128;24.750;2023-04-24T08:28:05;10.00;;;6.32;;
32874;SDS011;40468;42.128;24.750;2023-04-24T08:29:37;10.35;;;5.65;;
32874;SDS011;40468;42.128;24.750;2023-04-24T08:31:09;10.40;;;5.75;;
32874;SDS011;40468;42.128;24.750;2023-04-24T08:32:41;15.32;;;5.93;;
32874;SDS011;40468;42.128;24.750;2023-04-24T08:34:13;8.33;;;5.40;;
32874;SDS011;40468;42.128;24.750;2023-04-24T08:35:47;13.70;;;5.45;;
32874;SDS011;40468;42.128;24.750;2023-04-24T08:37:19;14.98;;;5.93;;
32874;SDS011;40468;42.128;24.750;2023-04-24T08:38:52;9.15;;;5.05;;
32874;SDS011;40468;42.128;24.750;2023-04-24T08:40:26;12.50;;;6.07;;
32874;SDS011;40468;42.128;24.750;2023-04-24T08:42:00;10.38;;;5.57;;
32874;SDS011;40468;42.128;24.750;2023-04-24T08:43:37;13.05;;;6.22;;
32874;SDS011;40468;42.128;24.750;2023-04-24T08:45:11;12.07;;;5.15;;
32874;SDS011;40468;42.128;24.750;2023-04-24T08:46:44;11.45;;;5.97;;
32874;SDS011;40468;42.128;24.750;2023-04-24T08:48:17;10.43;;;5.38;;
32874;SDS011;40468;42.128;24.750;2023-04-24T08:49:49;8.45;;;5.32;;
32874;SDS011;40468;42.128;24.750;2023-04-24T08:51:23;10.25;;;5.43;;
32874;SDS011;40468;42.128;24.750;2023-04-24T08:52:57;14.55;;;5.18;;
32874;SDS011;40468;42.128;24.750;2023-04-24T08:54:30;11.73;;;4.75;;
32874;SDS011;40468;42.128;24.750;2023-04-24T08:56:03;13.07;;;5.43;;
32874;SDS011;40468;42.128;24.750;2023-04-24T08:57:35;10.45;;;4.68;;
32874;SDS011;40468;42.128;24.750;2023-04-24T08:59:10;8.48;;;5.00;;
32874;SDS011;40468;42.128;24.750;2023-04-24T09:00:43;16.00;;;5.22;;
32874;SDS011;40468;42.128;24.750;2023-04-24T09:02:17;12.15;;;5.03;;
32874;SDS011;40468;42.128;24.750;2023-04-24T09:03:49;9.88;;;5.15;;
32874;SDS011;40468;42.128;24.750;2023-04-24T09:05:23;11.85;;;5.38;;
32874;SDS011;40468;42.128;24.750;2023-04-24T09:06:58;12.07;;;4.88;;
32874;SDS011;40468;42.128;24.750;2023-04-24T09:08:31;14.30;;;7.10;;
32874;SDS011;40468;42.128;24.750;2023-04-24T09:10:04;6.88;;;4.78;;
32874;SDS011;40468;42.128;24.750;2023-04-24T09:11:38;21.35;;;8.95;;
32874;SDS011;40468;42.128;24.750;2023-04-24T09:13:10;12.02;;;4.88;;
32874;SDS011;40468;42.128;24.750;2023-04-24T09:14:42;7.25;;;4.03;;